• Guest, pentru o varianta fara reclame a forumului oferim conturi premium. Mai multe detalii aici.

Aterizările și decolările de la Otopeni date peste cap de furtună; Qatar Airways...

newsbot

Member
În acest moment, la ora 20:00, mai multe zboruri care urmează să decoleze de la București sunt ținute la sol, iar cele care urmează să aterizeze în capitală sunt în holding pattern sau au fost redirecționate către alte aeroporturi din zonă. Cel puțin 8 zboruri se află acum în așteptare pentru a ateriza la București după ce o furtună ”blochează” calea de aterizare pe pista 08R a aeroportului Henri Coandă. Zborul Qatar Airways QR219 Doha – București merge la Constanța. Potrivit hărților meteo, situația se va înrăutăți în următoarea jumătate de oră. METAR LROP 201700Z 02020G30KT 350V050 7000 TSRAGR FEW024 BKN040CB 22/16 Q1003 TEMPO VRB30G40KT 1500 +TSRAGR BKN010 OVC025CB=

Continue reading...
 
Top